Airfield :
LOGIN :

Register | Disclaimer

   EN    FR    IT 

 










Legend :    VFR   Marginal VFR   IFR   Intensive IFR   Very Intensive IFR
Visi :
Ceiling :
>= 8 km
>= 3000ft
5 to 8 km
1000 to 3000 ft
1500m to 5 km
500 to 1000 ft
800 to 1500m
200 to 500 ft
< 800m
< 200 ft
Symbols :   Thunderstorms  Fog  Heavy snow  Heavy precipitations  Wind > 20 kt
SIGMETs :     Misc.  Thunderstorms  Icing  Turbulence  Mountain Waves  Volcanic Ashes






- Airport Elevation : 226 ft
- IATA code : BEX


EGUB - RAF Benson

CURRENT METAR :
  • 040821Z 33009KT 9999 SCT020 BKN030 11/07 Q1005 BECMG FEW020 SCT030 RMK WHT BECMG BLU

EXPIRED METARs :
  • 040750Z AUTO 34013KT 9999 // SCT019/// BKN025/// 11/06 Q1005
  • 040650Z AUTO 35009KT 9999 // BKN016/// SCT029/// 11/07 Q1005
  • 040550Z AUTO 34009KT 9999 // OVC015/// 10/07 Q1005

TAF TAF EGUB
Valid from the 04 at 09:00 until the 04 at 18:00 UTC


040737Z 0409/0418 33009KT 9999 FEW022 SCT030
PROB40 0409/0410 BKN020
PROB30
TEMPO 0415/0418 6000 SHRA SCT022
ATIS : +44 1491-837766 (x7524)



MET'MAP, your aeronautical weather chart ! - Copyright ORBIFLY December 2007 - Disclaimer

ORBIFLY MET'MAP TEAM :

Programming & Development : Alexandra Zaïnal
Concept & original design : Baudouin d'Aumeries
Assistance for programming : Marc-Olivier Méhu
Technical & hardware support : Manuel Goepfert

Contact : metmap@orbifly.com




SOURCES & CREDITS :

   NOAA